Time;durP1;ratioP1;P1;durP2;ratioP2;P2;SDS_P1;SDS_P2;PMS_P1;PMS_P2;Temp;Humidity;BMP_temperature;BMP_pressure;BME280_temperature;BME280_humidity;BME280_pressure;Samples;Min_cycle;Max_cycle;Signal;HPM_P1;HPM_P2
2022/06/21 00:00:19;;;;;;;8.13;5.18;;;;;;;15.18;63.67;101604.25;5071243;28;20154;-61
2022/06/21 00:02:46;;;;;;;11.77;5.32;;;;;;;15.21;63.39;101596.00;5091251;28;20031;-61
2022/06/21 00:05:22;;;;;;;7.35;5.80;;;;;;;15.09;63.51;101595.03;5090252;28;20467;-61
2022/06/21 00:07:47;;;;;;;10.90;5.18;;;;;;;15.04;63.72;101597.16;5092530;28;20028;-61
2022/06/21 00:10:18;;;;;;;11.85;5.75;;;;;;;15.08;63.74;101604.03;5088566;28;20104;-61
2022/06/21 00:12:44;;;;;;;9.80;5.43;;;;;;;15.04;64.27;101599.00;5088752;28;20066;-61
2022/06/21 00:15:10;;;;;;;11.60;6.00;;;;;;;14.97;64.35;101601.22;5089886;28;20062;-61
2022/06/21 00:17:36;;;;;;;10.07;6.40;;;;;;;14.99;64.22;101604.66;5090325;28;20020;-61
2022/06/21 00:20:01;;;;;;;10.20;5.70;;;;;;;14.80;64.81;101604.25;5072242;28;20040;-61
2022/06/21 00:22:26;;;;;;;9.27;5.18;;;;;;;14.91;64.46;101605.22;5089569;28;20039;-61
2022/06/21 00:24:52;;;;;;;8.70;5.25;;;;;;;14.77;64.85;101613.34;5072612;28;20024;-61
2022/06/21 00:27:21;;;;;;;11.05;6.03;;;;;;;14.63;65.46;101610.75;5072564;28;20032;-61
2022/06/21 00:29:49;;;;;;;9.98;5.55;;;;;;;14.76;65.35;101604.44;5070774;28;20042;-61
2022/06/21 00:32:18;;;;;;;10.47;6.03;;;;;;;14.62;65.37;101598.28;5090474;28;20541;-61
2022/06/21 00:34:49;;;;;;;13.23;5.95;;;;;;;14.69;65.26;101592.44;5071920;28;20028;-61
2022/06/21 00:37:19;;;;;;;9.10;5.55;;;;;;;14.63;65.36;101584.81;5090543;28;20087;-61
2022/06/21 00:39:45;;;;;;;10.13;5.90;;;;;;;14.65;65.26;101600.78;5090377;28;20031;-61
2022/06/21 00:42:22;;;;;;;11.35;6.03;;;;;;;14.64;65.10;101601.75;5070355;28;20028;-61
2022/06/21 00:45:11;;;;;;;11.57;6.40;;;;;;;14.63;65.46;101602.72;5089165;28;20024;-61
2022/06/21 00:47:45;;;;;;;8.63;6.03;;;;;;;14.65;65.27;101596.28;5088455;28;20036;-61
2022/06/21 00:50:25;;;;;;;10.18;5.60;;;;;;;14.59;65.22;101602.06;5086823;28;20035;-61
2022/06/21 00:52:53;;;;;;;9.90;6.15;;;;;;;14.54;65.77;101598.84;5089697;28;20024;-61
2022/06/21 00:55:39;;;;;;;11.63;6.15;;;;;;;14.52;65.26;101580.19;5087723;28;20086;-61
2022/06/21 00:58:05;;;;;;;8.38;6.47;;;;;;;14.45;65.54;101581.53;5088130;28;20028;-61
2022/06/21 01:00:56;;;;;;;12.80;6.40;;;;;;;14.45;65.60;101589.56;5088461;28;20056;-61
2022/06/21 01:03:26;;;;;;;9.85;5.60;;;;;;;14.27;66.00;101564.91;5088461;28;20482;-62
2022/06/21 01:05:53;;;;;;;10.82;6.60;;;;;;;14.35;66.26;101564.38;5090167;28;20036;-61
2022/06/21 01:08:30;;;;;;;12.70;5.90;;;;;;;14.26;66.63;101554.28;5073770;28;20024;-61
2022/06/21 01:11:01;;;;;;;10.65;6.57;;;;;;;14.11;67.09;101552.66;5089400;28;20479;-61
2022/06/21 01:13:30;;;;;;;8.00;5.93;;;;;;;14.05;67.19;101551.25;5087542;28;20020;-61
2022/06/21 01:15:56;;;;;;;16.35;6.80;;;;;;;13.89;67.62;101540.72;5092758;28;20035;-61
2022/06/21 01:18:26;;;;;;;7.95;5.93;;;;;;;13.99;67.50;101548.97;5072511;28;20024;-61
2022/06/21 01:20:56;;;;;;;10.18;5.57;;;;;;;13.91;68.23;101562.00;5072626;28;20020;-61
2022/06/21 01:23:29;;;;;;;11.45;6.45;;;;;;;13.94;68.14;101556.44;5110892;28;20080;-61
2022/06/21 01:26:04;;;;;;;13.25;6.50;;;;;;;13.99;67.98;101551.66;5102701;28;20036;-61
2022/06/21 01:28:31;;;;;;;12.65;6.53;;;;;;;13.98;68.36;101547.28;5070405;28;20047;-61
2022/06/21 01:30:57;;;;;;;11.27;6.40;;;;;;;13.95;68.29;101555.50;5090233;28;20028;-61
2022/06/21 01:33:34;;;;;;;12.50;6.72;;;;;;;13.91;68.42;101549.47;5071997;28;20205;-61
2022/06/21 01:36:04;;;;;;;15.52;6.85;;;;;;;13.82;68.54;101558.97;5089078;28;20483;-61
2022/06/21 01:38:33;;;;;;;13.70;7.13;;;;;;;13.85;68.90;101560.56;5089175;28;20027;-61
2022/06/21 01:41:14;;;;;;;12.43;7.10;;;;;;;13.94;68.58;101551.09;5089631;28;20024;-61
2022/06/21 01:43:44;;;;;;;14.57;6.80;;;;;;;13.87;68.87;101550.63;5092385;28;20023;-61
2022/06/21 01:46:14;;;;;;;13.02;7.00;;;;;;;13.80;69.11;101547.53;5092722;28;20040;-61
2022/06/21 01:48:45;;;;;;;12.43;7.00;;;;;;;13.90;68.50;101552.25;5092934;28;20028;-61
2022/06/21 01:51:15;;;;;;;14.90;7.45;;;;;;;13.74;69.14;101549.75;5093482;28;20475;-61
2022/06/21 01:53:43;;;;;;;14.38;7.30;;;;;;;13.68;68.88;101545.66;5073761;28;20022;-61
2022/06/21 01:56:13;;;;;;;17.85;8.02;;;;;;;13.66;69.14;101536.88;5093212;28;20429;-61
2022/06/21 01:58:43;;;;;;;13.65;7.28;;;;;;;13.73;69.20;101551.53;5092532;28;20034;-61
2022/06/21 02:01:18;;;;;;;15.52;7.90;;;;;;;13.71;68.68;101536.59;5092593;28;20383;-61
2022/06/21 02:03:45;;;;;;;11.45;7.18;;;;;;;13.72;69.22;101549.84;5073787;28;20020;-61
2022/06/21 02:06:14;;;;;;;13.00;7.53;;;;;;;13.47;70.13;101552.34;5092249;28;20042;-61
2022/06/21 02:08:48;;;;;;;8.30;7.35;;;;;;;13.52;70.03;101539.56;5092759;28;20024;-61
2022/06/21 02:11:25;;;;;;;15.35;7.18;;;;;;;13.58;69.96;101540.03;5092763;28;20123;-61
2022/06/21 02:16:42;;;;;;;12.95;7.45;;;;;;;13.43;70.55;101532.16;5090949;28;20074;-61
2022/06/21 02:19:23;;;;;;;10.02;7.15;;;;;;;13.57;69.94;101546.34;5092809;28;20024;-61
2022/06/21 02:21:51;;;;;;;10.90;7.38;;;;;;;13.62;69.91;101538.03;5092679;28;20032;-61
2022/06/21 02:24:17;;;;;;;10.63;6.85;;;;;;;13.52;70.06;101537.75;5055509;28;20871;-61
2022/06/21 02:26:48;;;;;;;12.40;7.68;;;;;;;13.55;70.22;101532.19;5091907;28;20039;-61
2022/06/21 02:29:14;;;;;;;12.05;7.70;;;;;;;13.44;70.40;101529.34;5089838;28;20036;-61
2022/06/21 02:31:40;;;;;;;12.55;7.20;;;;;;;13.43;69.90;101516.97;5090863;28;20115;-61
2022/06/21 02:34:14;;;;;;;14.32;7.18;;;;;;;13.57;69.95;101508.91;5058898;28;20127;-61
2022/06/21 02:36:46;;;;;;;12.57;7.00;;;;;;;13.52;70.02;101499.47;5074510;28;20043;-62
2022/06/21 02:39:18;;;;;;;12.65;7.40;;;;;;;13.52;70.01;101510.16;5092422;28;20107;-61
2022/06/21 02:41:49;;;;;;;12.45;7.53;;;;;;;13.49;69.79;101513.03;5093497;28;20388;-61
2022/06/21 02:44:28;;;;;;;14.85;7.85;;;;;;;13.52;69.50;101523.53;5091502;28;20062;-61
2022/06/21 02:46:57;;;;;;;14.35;8.27;;;;;;;13.42;70.26;101522.44;5093060;28;20073;-61
2022/06/21 02:49:35;;;;;;;14.70;8.02;;;;;;;13.44;69.73;101515.16;5092548;28;20046;-61
2022/06/21 02:52:14;;;;;;;12.55;7.28;;;;;;;13.43;69.59;101511.63;5092873;28;20028;-61
2022/06/21 02:54:57;;;;;;;12.65;7.55;;;;;;;13.42;69.46;101514.41;5091247;28;20027;-61
2022/06/21 02:57:28;;;;;;;14.48;7.80;;;;;;;13.31;69.66;101515.09;5090730;28;20028;-61
2022/06/21 02:59:56;;;;;;;12.00;7.40;;;;;;;13.29;69.74;101515.16;5091906;28;20103;-61
2022/06/21 03:02:27;;;;;;;14.20;7.47;;;;;;;13.20;70.16;101523.75;5090048;28;20053;-61
2022/06/21 03:04:57;;;;;;;12.27;7.15;;;;;;;13.21;70.04;101522.81;5091080;28;20375;-61
2022/06/21 03:07:27;;;;;;;13.82;7.80;;;;;;;13.21;70.15;101517.47;5074354;28;20025;-61
2022/06/21 03:09:54;;;;;;;10.85;7.45;;;;;;;13.15;70.35;101512.50;5090671;28;20024;-61
2022/06/21 03:12:24;;;;;;;12.35;7.35;;;;;;;13.17;69.99;101521.25;5092290;28;20107;-61
2022/06/21 03:14:53;;;;;;;8.77;7.03;;;;;;;13.22;69.77;101518.31;5091277;28;20073;-61
2022/06/21 03:17:23;;;;;;;12.52;7.65;;;;;;;13.08;70.45;101522.69;5088503;28;20079;-61
2022/06/21 03:19:51;;;;;;;11.68;7.38;;;;;;;13.04;70.70;101517.66;5090526;28;20031;-61
2022/06/21 03:22:23;;;;;;;11.80;8.05;;;;;;;13.00;70.87;101518.78;5090603;28;20417;-61
2022/06/21 03:24:53;;;;;;;12.48;7.85;;;;;;;12.90;71.28;101518.50;5087949;28;20016;-61
2022/06/21 03:27:34;;;;;;;12.55;8.52;;;;;;;12.96;70.84;101524.31;5090437;28;20056;-61
2022/06/21 03:30:00;;;;;;;15.55;8.10;;;;;;;12.80;71.16;101520.91;5090943;28;20387;-61
2022/06/21 03:32:30;;;;;;;13.38;7.80;;;;;;;12.77;71.87;101525.59;5089917;28;20111;-61
2022/06/21 03:34:58;;;;;;;12.57;8.15;;;;;;;12.80;71.59;101509.38;5090338;28;20028;-61
2022/06/21 03:37:23;;;;;;;14.10;7.72;;;;;;;12.71;71.59;101500.13;5073294;28;20027;-61
2022/06/21 03:42:39;;;;;;;14.77;8.85;;;;;;;12.72;72.23;101499.16;5091208;28;20062;-61
2022/06/21 03:45:16;;;;;;;15.43;9.43;;;;;;;12.87;72.03;101494.69;5090770;28;20423;-61
2022/06/21 03:47:59;;;;;;;14.43;9.57;;;;;;;12.92;72.08;101492.59;5075492;28;20028;-61
2022/06/21 03:50:39;;;;;;;15.18;9.02;;;;;;;12.93;71.92;101491.63;5090370;28;20038;-61
2022/06/21 03:53:05;;;;;;;10.93;9.18;;;;;;;12.85;72.31;101492.13;5090159;28;20027;-62
2022/06/21 03:55:57;;;;;;;15.57;9.70;;;;;;;12.88;72.41;101491.94;5072440;28;20040;-61
2022/06/21 03:58:37;;;;;;;14.57;9.63;;;;;;;12.85;72.69;101496.56;5085713;28;20073;-61
2022/06/21 04:01:24;;;;;;;11.70;9.23;;;;;;;12.89;72.43;101496.31;5072887;28;20464;-61
2022/06/21 04:03:53;;;;;;;17.77;9.50;;;;;;;12.83;72.96;101504.69;5089863;28;20112;-61
2022/06/21 04:06:24;;;;;;;16.88;10.10;;;;;;;12.88;72.44;101507.06;5088828;28;20035;-61
2022/06/21 04:09:07;;;;;;;15.23;9.88;;;;;;;12.82;72.55;101502.97;5089906;28;20523;-61
2022/06/21 04:11:55;;;;;;;17.13;9.48;;;;;;;12.75;72.94;101500.78;5090111;28;20398;-63
2022/06/21 04:14:48;;;;;;;15.55;9.60;;;;;;;12.71;73.02;101495.63;5087449;28;20505;-61
2022/06/21 04:17:40;;;;;;;16.98;10.45;;;;;;;12.94;72.52;101504.91;5072326;28;20052;-61
2022/06/21 04:20:14;;;;;;;14.23;10.93;;;;;;;12.91;73.16;101502.41;5087497;28;20089;-61
2022/06/21 04:22:56;;;;;;;16.67;10.52;;;;;;;13.00;72.71;101492.09;5072638;28;20031;-61
2022/06/21 04:25:32;;;;;;;16.10;10.20;;;;;;;13.05;72.94;101495.34;5090602;28;20032;-61
2022/06/21 04:28:21;;;;;;;15.18;9.90;;;;;;;13.14;72.29;101500.94;5071120;28;20075;-61
2022/06/21 04:30:50;;;;;;;14.73;9.55;;;;;;;13.23;72.25;101488.81;5090147;28;20105;-61
2022/06/21 04:33:24;;;;;;;19.45;10.52;;;;;;;13.25;72.44;101480.72;5089652;28;20367;-61
2022/06/21 04:35:58;;;;;;;16.08;9.05;;;;;;;13.33;72.05;101481.97;5088415;28;20069;-62
2022/06/21 04:38:40;;;;;;;12.48;8.95;;;;;;;13.29;72.29;101485.78;5071823;28;20497;-61
2022/06/21 04:41:12;;;;;;;14.95;9.32;;;;;;;13.29;71.85;101480.44;5090800;28;20060;-61
2022/06/21 04:43:54;;;;;;;16.52;9.82;;;;;;;13.36;72.22;101479.09;5090125;28;20024;-62
2022/06/21 04:46:43;;;;;;;14.57;9.82;;;;;;;13.43;71.79;101470.69;5073089;28;20036;-62
2022/06/21 04:49:41;;;;;;;16.95;9.27;;;;;;;13.55;71.32;101469.88;5089107;28;20027;-61
2022/06/21 04:52:31;;;;;;;18.88;10.02;;;;;;;13.55;71.42;101476.06;5071004;28;20032;-61
2022/06/21 04:54:58;;;;;;;18.10;9.85;;;;;;;13.58;71.39;101477.69;5086100;28;20035;-61
2022/06/21 04:57:29;;;;;;;17.38;9.38;;;;;;;13.61;71.16;101473.00;5089429;28;20027;-61
2022/06/21 05:00:17;;;;;;;15.95;9.07;;;;;;;13.61;71.15;101462.31;5089653;28;20429;-61
2022/06/21 05:02:47;;;;;;;14.13;10.00;;;;;;;13.68;71.84;101470.81;5088792;28;20692;-61
2022/06/21 05:05:25;;;;;;;10.75;7.80;;;;;;;13.72;70.87;101471.44;5088314;28;20028;-61
2022/06/21 05:07:54;;;;;;;14.07;8.50;;;;;;;13.72;70.73;101464.28;5090394;28;20032;-61
2022/06/21 05:10:24;;;;;;;10.88;7.53;;;;;;;13.83;70.07;101474.28;5090746;28;20039;-61
2022/06/21 05:12:54;;;;;;;11.77;7.68;;;;;;;13.92;69.87;101480.81;5089186;28;20414;-61
2022/06/21 05:15:26;;;;;;;11.18;7.80;;;;;;;13.95;69.88;101478.78;5088023;28;20063;-61
2022/06/21 05:18:07;;;;;;;15.07;7.68;;;;;;;13.96;70.38;101468.94;5092060;28;20031;-61
2022/06/21 05:20:37;;;;;;;12.70;7.07;;;;;;;13.97;70.07;101463.50;5092534;28;20020;-61
2022/06/21 05:23:05;;;;;;;;;;;;;;;14.14;69.28;101451.63;5075748;28;20024;-61
2022/06/21 05:25:36;;;;;;;11.68;6.82;;;;;;;14.12;69.89;101458.94;5093281;28;19958;-61
2022/06/21 05:28:16;;;;;;;11.00;6.53;;;;;;;14.19;69.19;101456.69;5091563;28;20051;-61
2022/06/21 05:30:49;;;;;;;13.05;6.57;;;;;;;14.13;68.95;101463.31;5094890;28;20051;-61
2022/06/21 05:33:28;;;;;;;9.80;6.10;;;;;;;14.17;68.17;101470.16;5075645;28;20035;-61
2022/06/21 05:35:54;;;;;;;13.23;6.22;;;;;;;14.08;68.02;101465.44;5110813;28;20497;-61
2022/06/21 05:38:24;;;;;;;11.65;7.10;;;;;;;14.25;67.88;101481.19;5101798;28;20073;-61
2022/06/21 05:41:29;;;;;;;16.33;6.20;;;;;;;14.38;67.61;101489.22;5093547;28;20036;-61
2022/06/21 05:43:59;;;;;;;9.07;6.15;;;;;;;14.52;66.94;101477.63;5091696;28;20540;-61
2022/06/21 05:46:28;;;;;;;13.60;6.40;;;;;;;14.63;66.63;101464.34;5093041;28;20024;-61
2022/06/21 05:48:58;;;;;;;11.55;6.03;;;;;;;14.70;67.13;101470.97;5092003;28;20052;-61
2022/06/21 05:51:32;;;;;;;10.63;5.50;;;;;;;14.81;65.82;101488.09;5092152;28;20600;-62
2022/06/21 05:54:11;;;;;;;10.55;6.38;;;;;;;14.84;66.08;101495.94;5090730;28;20056;-61
2022/06/21 05:56:40;;;;;;;10.50;5.03;;;;;;;14.93;65.70;101503.31;5094068;28;20399;-61
2022/06/21 05:59:12;;;;;;;9.07;5.60;;;;;;;15.00;65.03;101499.25;5092555;28;20026;-61
2022/06/21 06:01:43;;;;;;;6.70;5.25;;;;;;;15.05;65.13;101505.09;5093869;28;20035;-61
2022/06/21 06:04:17;;;;;;;8.70;5.35;;;;;;;15.07;65.01;101494.28;5093741;28;20028;-61
2022/06/21 06:06:44;;;;;;;9.50;5.00;;;;;;;15.13;64.90;101510.78;5093840;28;20020;-61
2022/06/21 06:09:20;;;;;;;10.18;5.25;;;;;;;15.22;64.59;101503.91;5093335;28;20390;-61
2022/06/21 06:12:17;;;;;;;10.35;4.95;;;;;;;15.39;64.43;101505.38;5091241;28;20431;-61
2022/06/21 06:14:51;;;;;;;13.30;5.25;;;;;;;15.47;64.08;101513.72;5078293;28;20036;-61
2022/06/21 06:17:56;;;;;;;11.93;5.47;;;;;;;15.60;63.61;101513.66;5069697;28;20515;-62
2022/06/21 06:20:49;;;;;;;9.75;4.63;;;;;;;15.66;63.12;101510.53;5028732;28;20072;-61
2022/06/21 06:23:20;;;;;;;10.75;4.75;;;;;;;15.69;62.97;101507.66;5089589;28;20051;-61
2022/06/21 06:26:12;;;;;;;6.15;4.35;;;;;;;15.74;62.61;101521.59;5092717;28;20028;-62
2022/06/21 06:28:46;;;;;;;8.88;4.32;;;;;;;15.76;61.50;101529.50;5087961;28;20077;-61
2022/06/21 06:31:27;;;;;;;8.00;4.22;;;;;;;15.73;61.96;101527.91;5070673;28;20521;-61
2022/06/21 06:34:01;;;;;;;7.63;4.07;;;;;;;15.76;61.80;101522.31;5071905;28;20062;-61
2022/06/21 06:36:31;;;;;;;11.32;4.35;;;;;;;15.66;61.86;101524.78;5090957;28;20073;-61
2022/06/21 06:38:58;;;;;;;8.40;4.50;;;;;;;15.75;61.32;101514.38;5091923;28;20047;-61
2022/06/21 06:41:34;;;;;;;8.00;4.50;;;;;;;15.91;60.84;101520.31;5074735;28;20028;-61
2022/06/21 06:44:03;;;;;;;12.05;4.80;;;;;;;16.10;61.23;101527.84;5091677;28;20024;-61
2022/06/21 06:46:35;;;;;;;7.88;4.07;;;;;;;16.29;60.21;101520.09;5091088;28;20505;-61
2022/06/21 06:49:21;;;;;;;9.43;4.53;;;;;;;16.42;59.89;101527.22;5092678;28;20023;-61
2022/06/21 06:51:58;;;;;;;10.40;4.57;;;;;;;16.47;60.43;101530.38;5092208;28;20031;-61
2022/06/21 06:54:38;;;;;;;13.43;4.85;;;;;;;16.45;59.69;101529.69;5092479;28;20028;-61
2022/06/21 06:57:03;;;;;;;;;;;;;;;16.61;59.86;101532.88;5093295;28;20052;-61
2022/06/21 06:59:29;;;;;;;8.23;4.22;;;;;;;16.58;58.82;101531.28;5092176;28;20397;-61
2022/06/21 07:02:03;;;;;;;9.05;3.97;;;;;;;16.64;58.60;101537.16;5092375;28;20020;-62
2022/06/21 07:04:35;;;;;;;10.30;3.85;;;;;;;16.76;59.75;101530.84;5092655;28;20024;-61
2022/06/21 07:07:07;;;;;;;10.45;4.57;;;;;;;16.95;58.05;101531.13;5092788;28;20379;-61
2022/06/21 07:09:42;;;;;;;9.05;4.25;;;;;;;17.15;57.62;101526.84;5092244;28;20016;-61
2022/06/21 07:12:15;;;;;;;9.13;4.38;;;;;;;17.22;57.39;101529.91;5092593;28;20024;-61
2022/06/21 07:14:44;;;;;;;10.55;4.40;;;;;;;17.19;55.96;101528.31;5094054;28;20028;-61
2022/06/21 07:17:22;;;;;;;10.73;4.60;;;;;;;17.35;56.58;101537.81;5112577;28;20030;-62
2022/06/21 07:19:48;;;;;;;10.13;4.47;;;;;;;17.44;56.46;101520.94;5086469;28;20122;-61
2022/06/21 07:22:22;;;;;;;9.27;4.68;;;;;;;17.45;56.23;101517.28;5092416;28;20084;-61
2022/06/21 07:24:57;;;;;;;9.77;4.88;;;;;;;17.51;55.11;101521.31;5092247;28;20027;-62
2022/06/21 07:27:26;;;;;;;10.50;4.70;;;;;;;17.33;55.44;101507.53;5073449;28;20052;-62
2022/06/21 07:29:58;;;;;;;10.43;4.82;;;;;;;17.62;55.62;101518.63;5092176;28;20028;-61
2022/06/21 07:32:49;;;;;;;7.72;4.45;;;;;;;17.78;55.27;101524.44;5092420;28;20030;-61
2022/06/21 07:35:32;;;;;;;12.88;4.93;;;;;;;17.73;55.24;101523.09;5059387;28;20096;-62
2022/06/21 07:38:06;;;;;;;12.50;4.57;;;;;;;17.92;54.08;101526.00;5073425;28;20030;-62
2022/06/21 07:40:36;;;;;;;12.90;5.20;;;;;;;18.03;54.26;101530.47;5092265;28;20115;-61
2022/06/21 07:43:19;;;;;;;11.57;5.32;;;;;;;18.04;54.54;101524.13;5091599;28;20028;-62
2022/06/21 07:45:53;;;;;;;14.05;4.85;;;;;;;18.10;54.48;101523.59;5091472;28;20028;-61
2022/06/21 07:48:28;;;;;;;10.98;4.40;;;;;;;18.14;53.83;101527.75;5093936;28;20027;-61
2022/06/21 07:51:01;;;;;;;7.47;4.80;;;;;;;18.28;52.88;101507.72;5112542;28;20023;-61
2022/06/21 07:53:35;;;;;;;8.35;4.68;;;;;;;18.50;53.09;101513.00;5112361;28;20023;-61
2022/06/21 07:56:10;;;;;;;11.32;4.88;;;;;;;18.45;52.98;101512.53;5106078;28;20027;-61
2022/06/21 07:58:56;;;;;;;9.77;4.57;;;;;;;18.60;52.78;101503.13;5073165;28;20050;-61
2022/06/21 08:07:25;;;;;;;11.50;5.53;;;;;;;18.88;51.31;101497.19;5091831;28;20444;-61
2022/06/21 08:10:01;;;;;;;11.23;5.00;;;;;;;19.11;51.20;101498.72;5073595;28;20119;-61
2022/06/21 08:12:26;;;;;;;9.70;4.43;;;;;;;19.00;50.23;101496.09;5091227;28;20289;-61
2022/06/21 08:14:52;;;;;;;15.95;4.22;;;;;;;18.95;49.96;101499.22;5072671;28;20479;-61
2022/06/21 08:17:40;;;;;;;9.85;4.00;;;;;;;19.05;51.55;101500.09;5091042;28;20031;-61
2022/06/21 08:20:24;;;;;;;11.55;3.92;;;;;;;19.21;50.43;101505.00;5073257;28;20032;-61
2022/06/21 08:22:57;;;;;;;8.45;3.55;;;;;;;19.37;48.72;101498.22;5091006;28;20023;-61
2022/06/21 08:25:36;;;;;;;7.57;3.67;;;;;;;19.44;48.82;101481.38;5072860;28;20028;-61
2022/06/21 08:28:09;;;;;;;7.25;3.58;;;;;;;19.57;48.03;101473.00;5064108;28;20037;-61
2022/06/21 08:30:50;;;;;;;8.48;4.00;;;;;;;19.73;48.38;101473.31;5067810;28;20024;-62
2022/06/21 08:33:22;;;;;;;8.23;4.05;;;;;;;19.78;46.83;101461.25;5070245;28;20054;-62
2022/06/21 08:35:57;;;;;;;8.13;3.50;;;;;;;19.84;47.64;101463.38;5066625;28;20040;-61
2022/06/21 08:38:26;;;;;;;9.20;3.67;;;;;;;19.87;49.40;101474.75;5066998;28;20115;-62
2022/06/21 08:44:30;;;;;;;10.85;3.90;;;;;;;19.93;49.16;101452.56;5062006;28;20274;-61
2022/06/21 08:47:33;;;;;;;8.73;4.30;;;;;;;20.03;49.05;101443.59;5068573;28;20028;-61
2022/06/21 08:50:14;;;;;;;12.88;3.92;;;;;;;20.02;48.93;101445.47;5023930;28;20120;-62
2022/06/21 08:52:43;;;;;;;15.05;4.57;;;;;;;19.87;46.93;101425.31;5061214;28;20036;-62
2022/06/21 08:55:11;;;;;;;10.35;4.05;;;;;;;19.66;47.77;101428.16;5070317;28;20040;-61
2022/06/21 08:58:02;;;;;;;9.10;3.83;;;;;;;19.62;47.83;101432.94;5069617;28;20031;-61
2022/06/21 09:00:34;;;;;;;9.48;4.40;;;;;;;19.54;48.85;101434.66;5069420;28;20055;-61
2022/06/21 09:03:03;;;;;;;9.57;4.60;;;;;;;19.67;48.34;101428.00;5068581;28;20024;-62
2022/06/21 09:05:31;;;;;;;11.85;5.10;;;;;;;19.59;48.51;101424.25;5068775;28;20032;-62
2022/06/21 09:08:22;;;;;;;16.08;5.28;;;;;;;19.59;48.91;101426.97;5068040;28;20499;-61
2022/06/21 09:11:03;;;;;;;9.40;5.10;;;;;;;19.76;49.09;101422.75;5067797;28;20021;-61
2022/06/21 09:13:57;;;;;;;10.35;4.50;;;;;;;19.94;48.56;101410.22;5066545;28;20479;-61
2022/06/21 09:16:40;;;;;;;10.15;4.50;;;;;;;20.09;48.09;101399.81;5067157;28;20471;-61
2022/06/21 09:19:12;;;;;;;12.15;4.35;;;;;;;20.36;46.96;101410.72;5069213;28;20111;-61
2022/06/21 09:21:48;;;;;;;9.25;4.03;;;;;;;20.62;47.14;101405.53;5066705;28;20024;-61
2022/06/21 09:24:31;;;;;;;10.27;4.30;;;;;;;20.87;45.53;101408.53;5068236;28;20028;-62
2022/06/21 09:27:18;;;;;;;7.72;4.00;;;;;;;20.98;46.98;101394.81;5068507;28;20432;-62
2022/06/21 09:29:50;;;;;;;8.15;4.32;;;;;;;21.19;44.99;101393.72;5067481;28;20464;-61
2022/06/21 09:32:41;;;;;;;8.30;4.35;;;;;;;21.35;42.95;101384.91;5069148;28;20045;-61
2022/06/21 09:35:36;;;;;;;8.00;4.72;;;;;;;21.35;43.76;101379.47;5067877;28;20115;-61
2022/06/21 09:38:26;;;;;;;7.93;4.00;;;;;;;21.40;44.15;101380.75;5066736;28;20024;-61
2022/06/21 09:41:03;;;;;;;8.77;4.10;;;;;;;21.46;43.38;101392.81;5068781;28;20031;-61
2022/06/21 09:43:35;;;;;;;8.85;4.10;;;;;;;21.67;45.34;101403.34;5065536;28;20051;-62
2022/06/21 09:46:21;;;;;;;9.88;4.18;;;;;;;21.88;44.90;101395.72;5066980;28;20020;-61
2022/06/21 09:49:05;;;;;;;10.27;4.78;;;;;;;21.86;43.96;101388.78;5067864;28;20485;-61
2022/06/21 09:52:07;;;;;;;8.40;3.78;;;;;;;21.98;43.65;101395.66;5068432;28;20025;-61
2022/06/21 09:54:32;;;;;;;6.82;3.75;;;;;;;21.82;42.47;101390.94;5019302;28;20032;-61
2022/06/21 09:57:24;;;;;;;8.60;4.00;;;;;;;21.90;43.50;101382.88;5068289;28;20495;-62
2022/06/21 10:00:11;;;;;;;7.32;3.95;;;;;;;21.60;41.89;101386.03;5069755;28;20111;-61
2022/06/21 10:03:02;;;;;;;9.68;4.00;;;;;;;21.57;42.99;101389.88;5068093;28;20064;-61
2022/06/21 10:05:37;;;;;;;7.63;3.88;;;;;;;21.42;42.94;101397.69;5071005;28;20024;-61
2022/06/21 10:08:21;;;;;;;8.00;4.55;;;;;;;21.44;43.06;101402.94;5071014;28;20025;-61
2022/06/21 10:11:20;;;;;;;6.25;3.80;;;;;;;21.42;42.57;101399.56;5068998;28;20024;-61
2022/06/21 10:14:24;;;;;;;7.93;3.85;;;;;;;21.39;42.16;101389.03;5070015;28;20046;-61
2022/06/21 10:17:15;;;;;;;7.05;3.60;;;;;;;21.41;43.40;101395.13;5024797;28;20044;-62
2022/06/21 10:19:47;;;;;;;10.93;4.00;;;;;;;21.24;43.36;101391.41;5072247;28;20073;-61
2022/06/21 10:22:27;;;;;;;9.38;4.22;;;;;;;21.23;42.68;101400.50;5071037;28;20032;-62
2022/06/21 10:25:24;;;;;;;10.48;3.80;;;;;;;21.31;42.79;101398.72;5084861;28;20035;-61
2022/06/21 10:28:10;;;;;;;10.65;4.10;;;;;;;21.31;42.13;101406.00;5075554;28;20044;-61
2022/06/21 10:30:51;;;;;;;7.28;4.00;;;;;;;21.39;42.24;101397.16;5092363;28;20027;-62
2022/06/21 10:33:39;;;;;;;6.60;4.00;;;;;;;21.43;42.84;101390.44;5074553;28;20043;-61
2022/06/21 10:36:26;;;;;;;7.63;4.40;;;;;;;21.55;42.94;101400.84;5050501;28;20035;-62
2022/06/21 10:39:07;;;;;;;9.85;4.20;;;;;;;21.52;43.81;101416.56;5089033;28;20114;-61
2022/06/21 10:44:34;;;;;;;11.80;4.28;;;;;;;21.44;41.86;101402.94;5091564;28;20047;-61
2022/06/21 10:47:32;;;;;;;6.65;3.60;;;;;;;21.48;43.40;101401.66;5092068;28;20024;-61
2022/06/21 10:50:23;;;;;;;12.52;4.55;;;;;;;21.59;44.04;101403.25;5072345;28;20035;-61
2022/06/21 10:53:02;;;;;;;11.10;4.32;;;;;;;21.51;43.70;101398.63;5073181;28;20027;-61
2022/06/21 10:55:48;;;;;;;10.07;4.63;;;;;;;21.66;45.04;101407.91;5091266;28;20165;-61
2022/06/21 10:58:43;;;;;;;8.85;4.10;;;;;;;21.82;43.54;101403.63;5091822;28;20102;-61
2022/06/21 11:01:36;;;;;;;8.90;4.05;;;;;;;21.96;43.31;101412.03;5089896;28;20383;-62
2022/06/21 11:04:17;;;;;;;10.93;4.50;;;;;;;21.81;44.62;101413.63;5073992;28;20194;-62
2022/06/21 11:06:56;;;;;;;7.30;4.07;;;;;;;21.84;43.81;101415.16;5092119;28;20024;-61
2022/06/21 11:10:01;;;;;;;7.38;4.28;;;;;;;21.89;43.80;101410.13;5073711;28;20519;-61
2022/06/21 11:15:52;;;;;;;8.20;3.97;;;;;;;21.55;44.90;101402.72;5092502;28;20081;-61
2022/06/21 11:18:47;;;;;;;6.93;3.92;;;;;;;21.54;44.02;101401.03;5057292;28;20040;-61
2022/06/21 11:21:31;;;;;;;12.55;5.38;;;;;;;21.55;44.89;101395.44;5092311;28;20027;-61
2022/06/21 11:24:06;;;;;;;8.00;4.88;;;;;;;21.60;43.60;101399.56;5092145;28;20399;-61
2022/06/21 11:26:56;;;;;;;8.82;4.40;;;;;;;21.69;43.63;101404.03;5092388;28;20028;-61
2022/06/21 11:29:38;;;;;;;5.85;4.05;;;;;;;21.76;43.27;101395.13;5073566;28;20086;-61
2022/06/21 11:32:17;;;;;;;7.25;4.18;;;;;;;21.71;43.22;101394.75;5073647;28;20089;-61
2022/06/21 11:34:50;;;;;;;7.15;4.13;;;;;;;21.87;43.89;101395.91;5073713;28;20050;-60
2022/06/21 11:37:27;;;;;;;9.23;5.00;;;;;;;21.93;43.97;101390.69;5073705;28;20039;-61
2022/06/21 11:40:02;;;;;;;14.18;5.05;;;;;;;22.02;44.70;101383.47;5092395;28;20023;-61
2022/06/21 11:42:50;;;;;;;8.32;4.28;;;;;;;22.18;43.00;101377.38;5090750;28;20031;-61
2022/06/21 11:45:47;;;;;;;8.45;4.50;;;;;;;22.18;42.91;101386.34;5091386;28;20102;-61
2022/06/21 11:48:26;;;;;;;8.88;4.28;;;;;;;22.20;42.22;101386.16;5072009;28;20040;-61
2022/06/21 11:51:09;;;;;;;8.65;3.97;;;;;;;22.44;41.85;101372.78;5091947;28;20370;-61
2022/06/21 11:53:41;;;;;;;7.32;4.22;;;;;;;22.45;41.19;101371.75;5073398;28;20454;-61
2022/06/21 11:56:18;;;;;;;11.07;4.70;;;;;;;22.61;41.31;101375.56;5073719;28;20051;-61
2022/06/21 11:59:17;;;;;;;10.82;4.15;;;;;;;22.86;40.99;101382.78;5091631;28;20028;-61
2022/06/21 12:01:56;;;;;;;7.57;4.53;;;;;;;22.86;40.35;101369.22;5092004;28;20034;-61
2022/06/21 12:04:33;;;;;;;7.32;4.60;;;;;;;23.14;40.51;101374.41;5091003;28;20059;-61
2022/06/21 12:07:16;;;;;;;8.23;4.00;;;;;;;23.98;40.46;101370.59;5073334;28;20024;-61
2022/06/21 12:10:06;;;;;;;7.20;4.47;;;;;;;24.51;38.97;101362.84;5091660;28;20020;-61
2022/06/21 12:12:34;;;;;;;8.57;4.35;;;;;;;24.31;36.95;101372.38;5072608;28;20050;-61
2022/06/21 12:15:15;;;;;;;7.00;4.15;;;;;;;24.19;37.07;101351.00;5091575;28;20165;-62
2022/06/21 12:17:57;;;;;;;13.20;4.22;;;;;;;24.06;37.14;101360.72;5091318;28;20020;-61
2022/06/21 12:20:32;;;;;;;8.65;3.60;;;;;;;23.60;38.45;101353.09;5056702;28;20028;-61
2022/06/21 12:23:41;;;;;;;11.55;3.70;;;;;;;23.43;38.17;101351.38;5091012;28;20073;-62